Time;durP1;ratioP1;P1;durP2;ratioP2;P2;SDS_P1;SDS_P2;PMS_P1;PMS_P2;Temp;Humidity;BMP_temperature;BMP_pressure;BME280_temperature;BME280_humidity;BME280_pressure;Samples;Min_cycle;Max_cycle;Signal;HPM_P1;HPM_P2
2023/02/10 00:01:39;;;;;;;3.30;2.22;;;21.20;44.30;;;;;;5018846;28;20029;-64
2023/02/10 00:04:05;;;;;;;4.18;2.60;;;21.10;44.30;;;;;;5019473;28;20029;-63
2023/02/10 00:06:31;;;;;;;3.95;2.47;;;21.10;44.30;;;;;;5020910;28;20079;-65
2023/02/10 00:08:59;;;;;;;3.85;2.67;;;21.10;44.30;;;;;;5023250;28;20497;-64
2023/02/10 00:14:14;;;;;;;4.15;2.50;;;21.10;44.30;;;;;;5017653;28;20428;-64
2023/02/10 00:16:39;;;;;;;4.32;2.53;;;21.00;44.40;;;;;;5017046;28;20422;-63
2023/02/10 00:19:05;;;;;;;3.50;2.30;;;21.00;44.30;;;;;;5019375;28;20037;-64
2023/02/10 00:21:31;;;;;;;3.20;2.13;;;21.00;44.30;;;;;;5020340;28;20636;-64
2023/02/10 00:23:57;;;;;;;3.60;2.22;;;21.00;44.40;;;;;;5019331;28;20040;-64
2023/02/10 00:26:22;;;;;;;4.15;2.60;;;21.00;44.40;;;;;;5021178;28;20018;-64
2023/02/10 00:28:48;;;;;;;4.28;2.75;;;21.00;44.40;;;;;;5020443;28;20092;-65
2023/02/10 00:31:18;;;;;;;4.13;2.20;;;20.90;44.40;;;;;;5020921;28;20494;-64
2023/02/10 00:33:44;;;;;;;4.20;2.50;;;20.90;44.50;;;;;;5025894;28;20041;-64
2023/02/10 00:36:11;;;;;;;4.07;2.50;;;20.90;44.50;;;;;;5021431;28;20033;-64
2023/02/10 00:38:37;;;;;;;3.90;2.40;;;20.90;44.50;;;;;;5020848;28;20026;-64
2023/02/10 00:41:14;;;;;;;3.50;2.40;;;20.80;44.50;;;;;;5020851;28;20429;-65
2023/02/10 00:43:42;;;;;;;3.40;2.17;;;20.80;44.60;;;;;;5019008;28;20478;-64
2023/02/10 00:46:08;;;;;;;3.85;2.40;;;20.80;44.50;;;;;;5021968;28;20080;-64
2023/02/10 00:48:34;;;;;;;3.38;2.25;;;20.80;44.60;;;;;;5021369;28;20497;-64
2023/02/10 00:50:59;;;;;;;3.90;2.45;;;20.80;44.60;;;;;;5021334;28;20067;-64
2023/02/10 00:53:25;;;;;;;3.67;2.22;;;20.70;45.00;;;;;;5018609;28;20037;-63
2023/02/10 00:55:51;;;;;;;3.63;2.25;;;20.70;44.60;;;;;;5021655;28;20113;-65
2023/02/10 00:58:17;;;;;;;3.50;2.40;;;20.70;44.60;;;;;;5021927;28;20446;-64
2023/02/10 01:00:43;;;;;;;3.80;2.50;;;20.70;44.60;;;;;;5024656;28;20133;-64
2023/02/10 01:03:08;;;;;;;4.07;2.67;;;20.70;44.60;;;;;;5019571;28;20109;-64
2023/02/10 01:05:34;;;;;;;3.60;2.33;;;20.70;44.60;;;;;;5019978;28;20087;-64
2023/02/10 01:08:00;;;;;;;3.53;2.30;;;20.60;44.60;;;;;;5022173;28;20032;-64
2023/02/10 01:10:25;;;;;;;3.80;2.53;;;20.70;44.70;;;;;;5019459;28;20026;-63
2023/02/10 01:12:51;;;;;;;3.58;2.20;;;20.60;44.60;;;;;;5021813;28;20033;-65
2023/02/10 01:15:17;;;;;;;4.05;2.63;;;20.60;44.60;;;;;;5020992;28;20037;-64
2023/02/10 01:17:42;;;;;;;3.60;2.35;;;20.60;44.70;;;;;;5018757;28;20156;-63
2023/02/10 01:20:08;;;;;;;3.90;2.47;;;20.50;44.70;;;;;;5017525;28;20033;-63
2023/02/10 01:22:35;;;;;;;3.97;2.42;;;20.50;44.70;;;;;;5021374;28;20108;-64
2023/02/10 01:25:01;;;;;;;3.97;2.45;;;20.50;44.70;;;;;;5020378;28;20116;-64
2023/02/10 01:27:27;;;;;;;3.85;2.47;;;20.50;44.70;;;;;;5017493;28;20388;-64
2023/02/10 01:29:52;;;;;;;3.55;2.20;;;20.50;44.80;;;;;;5019143;28;20021;-64
2023/02/10 01:32:18;;;;;;;3.90;2.13;;;20.50;44.70;;;;;;5017728;28;20033;-64
2023/02/10 01:34:43;;;;;;;3.60;2.50;;;20.50;44.70;;;;;;5020577;28;20477;-64
2023/02/10 01:37:09;;;;;;;3.70;2.45;;;20.50;44.80;;;;;;5020256;28;20051;-64
2023/02/10 01:39:35;;;;;;;3.85;2.50;;;20.50;44.80;;;;;;5016675;28;20056;-63
2023/02/10 01:42:01;;;;;;;3.55;2.33;;;20.50;44.80;;;;;;5019612;28;20033;-64
2023/02/10 01:44:27;;;;;;;3.40;2.45;;;20.40;44.80;;;;;;5019975;28;20032;-64
2023/02/10 01:46:54;;;;;;;3.33;2.30;;;20.40;44.80;;;;;;5019152;28;20030;-64
2023/02/10 01:49:24;;;;;;;3.25;2.13;;;20.40;44.80;;;;;;5016049;28;20057;-63
2023/02/10 01:51:54;;;;;;;;;;;20.40;44.80;;;;;;5018514;28;20028;-64
2023/02/10 01:54:27;;;;;;;4.10;2.40;;;20.40;44.80;;;;;;5016231;28;19910;-64
2023/02/10 01:56:53;;;;;;;2.75;2.00;;;20.40;44.90;;;;;;5016852;28;20022;-63
2023/02/10 01:59:20;;;;;;;3.10;2.35;;;20.40;44.90;;;;;;5020568;28;20112;-63
2023/02/10 02:01:46;;;;;;;2.72;2.08;;;20.30;44.90;;;;;;5021804;28;20017;-63
2023/02/10 02:04:12;;;;;;;3.15;2.08;;;20.30;45.00;;;;;;5018820;28;20484;-64
2023/02/10 02:06:38;;;;;;;3.80;2.35;;;20.30;44.90;;;;;;5017384;28;20457;-63
2023/02/10 02:09:05;;;;;;;3.60;2.13;;;20.30;44.90;;;;;;5017940;28;20485;-64
2023/02/10 02:11:45;;;;;;;2.92;2.10;;;20.30;44.90;;;;;;5016619;28;20022;-64
2023/02/10 02:14:15;;;;;;;4.00;2.40;;;20.30;45.00;;;;;;5022059;28;20037;-63
2023/02/10 02:17:00;;;;;;;3.20;2.20;;;20.20;45.00;;;;;;5014992;28;20085;-65
2023/02/10 02:19:39;;;;;;;2.92;2.10;;;20.20;45.00;;;;;;5018302;28;20017;-63
2023/02/10 02:22:35;;;;;;;3.28;2.17;;;20.20;45.10;;;;;;5016770;28;20030;-63
2023/02/10 02:25:27;;;;;;;2.78;2.00;;;20.20;45.10;;;;;;5019120;28;20055;-63
2023/02/10 02:28:15;;;;;;;4.05;2.42;;;20.20;45.10;;;;;;5018994;28;20021;-64
2023/02/10 02:30:57;;;;;;;2.92;2.20;;;20.10;45.10;;;;;;5017485;28;20084;-64
2023/02/10 02:33:32;;;;;;;3.20;2.28;;;20.10;45.20;;;;;;5022550;28;20025;-64
2023/02/10 02:36:07;;;;;;;2.88;2.00;;;20.10;45.20;;;;;;5018069;28;20041;-64
2023/02/10 02:38:41;;;;;;;3.10;2.13;;;20.10;45.20;;;;;;5017800;28;20573;-63
2023/02/10 02:41:07;;;;;;;3.80;2.10;;;20.10;45.20;;;;;;5017521;28;20448;-64
2023/02/10 02:43:33;;;;;;;2.90;2.20;;;20.10;45.20;;;;;;5017650;28;20069;-64
2023/02/10 02:46:08;;;;;;;3.10;2.05;;;20.10;45.20;;;;;;5019581;28;20492;-64
2023/02/10 02:48:56;;;;;;;2.83;2.00;;;20.10;45.30;;;;;;5023483;28;20038;-63
2023/02/10 02:51:49;;;;;;;3.60;2.17;;;20.00;45.20;;;;;;5024229;28;20087;-64
2023/02/10 02:54:17;;;;;;;3.17;2.20;;;20.00;45.30;;;;;;5022193;28;20030;-65
2023/02/10 02:56:49;;;;;;;3.60;2.37;;;20.00;45.30;;;;;;5025068;28;20512;-65
2023/02/10 02:59:24;;;;;;;3.25;2.00;;;20.00;45.30;;;;;;5023797;28;20345;-64
2023/02/10 03:02:00;;;;;;;2.90;1.92;;;20.00;45.40;;;;;;5023026;28;20037;-63
2023/02/10 03:04:31;;;;;;;3.20;2.10;;;20.00;45.40;;;;;;5021251;28;20029;-64
2023/02/10 03:06:57;;;;;;;3.28;2.10;;;20.00;45.40;;;;;;5022281;28;20026;-64
2023/02/10 03:09:23;;;;;;;3.13;2.00;;;19.90;45.40;;;;;;5021059;28;20454;-65
2023/02/10 03:11:49;;;;;;;3.00;2.00;;;19.90;45.40;;;;;;5021555;28;20029;-63
2023/02/10 03:14:14;;;;;;;2.88;2.00;;;19.90;45.40;;;;;;5020835;28;20118;-63
2023/02/10 03:16:40;;;;;;;2.80;1.98;;;19.90;45.50;;;;;;5019533;28;20075;-63
2023/02/10 03:19:05;;;;;;;2.97;1.98;;;19.90;45.50;;;;;;5022733;28;20022;-63
2023/02/10 03:21:31;;;;;;;3.30;2.17;;;19.90;45.50;;;;;;5029728;28;20036;-63
2023/02/10 03:23:57;;;;;;;3.22;2.22;;;19.90;45.50;;;;;;5023083;28;20021;-63
2023/02/10 03:26:22;;;;;;;2.70;1.98;;;19.90;45.50;;;;;;5022239;28;20029;-64
2023/02/10 03:28:48;;;;;;;3.08;2.03;;;19.90;45.50;;;;;;5022116;28;20095;-64
2023/02/10 03:31:13;;;;;;;2.72;1.90;;;19.90;45.60;;;;;;5021466;28;20033;-65
2023/02/10 03:33:39;;;;;;;3.00;2.03;;;19.90;45.60;;;;;;5021060;28;20879;-64
2023/02/10 03:36:05;;;;;;;3.20;2.20;;;19.90;45.60;;;;;;5021114;28;20030;-63
2023/02/10 03:38:30;;;;;;;2.90;1.85;;;19.90;45.60;;;;;;5023217;28;20049;-64
2023/02/10 03:40:56;;;;;;;2.70;1.88;;;19.90;45.60;;;;;;5023424;28;20026;-63
2023/02/10 03:43:22;;;;;;;3.03;2.00;;;19.80;45.60;;;;;;5022117;28;20042;-64
2023/02/10 03:45:47;;;;;;;2.95;2.00;;;19.90;45.70;;;;;;5021205;28;20543;-65
2023/02/10 03:48:15;;;;;;;3.53;2.17;;;19.80;45.60;;;;;;5022856;28;20048;-63
2023/02/10 03:50:41;;;;;;;3.00;2.10;;;19.80;45.60;;;;;;5021070;28;20046;-63
2023/02/10 03:53:07;;;;;;;3.20;2.20;;;19.80;45.70;;;;;;5020102;28;20029;-63
2023/02/10 03:55:34;;;;;;;3.45;2.17;;;19.80;45.70;;;;;;5019434;28;20080;-63
2023/02/10 03:58:01;;;;;;;3.47;2.38;;;19.80;45.70;;;;;;5021193;28;20030;-63
2023/02/10 04:00:27;;;;;;;3.08;2.00;;;19.80;45.70;;;;;;5020022;28;20105;-63
2023/02/10 04:02:53;;;;;;;3.25;2.28;;;19.80;45.70;;;;;;5018770;28;20021;-63
2023/02/10 04:05:18;;;;;;;3.28;2.40;;;19.80;45.70;;;;;;5021708;28;20409;-63
2023/02/10 04:07:44;;;;;;;2.90;2.03;;;19.80;45.80;;;;;;5022053;28;20053;-65
2023/02/10 04:10:10;;;;;;;3.15;2.20;;;19.80;45.80;;;;;;5020824;28;20093;-63
2023/02/10 04:12:36;;;;;;;2.80;2.00;;;19.80;45.80;;;;;;5021353;28;20497;-63
2023/02/10 04:15:02;;;;;;;2.88;2.10;;;19.80;45.80;;;;;;5021904;28;20484;-63
2023/02/10 04:17:28;;;;;;;3.22;2.13;;;19.80;45.80;;;;;;5021036;28;20057;-63
2023/02/10 04:19:53;;;;;;;3.10;2.20;;;19.80;45.80;;;;;;5020939;28;20477;-65
2023/02/10 04:22:19;;;;;;;2.88;2.10;;;19.80;45.80;;;;;;5021571;28;20098;-63
2023/02/10 04:24:45;;;;;;;2.88;1.95;;;19.80;45.80;;;;;;5019782;28;20061;-65
2023/02/10 04:27:10;;;;;;;3.47;2.38;;;19.80;45.90;;;;;;5018777;28;20361;-64
2023/02/10 04:29:39;;;;;;;3.00;2.10;;;19.70;45.80;;;;;;5019702;28;20032;-64
2023/02/10 04:32:05;;;;;;;2.78;1.85;;;19.70;45.80;;;;;;5022572;28;20446;-63
2023/02/10 04:34:31;;;;;;;2.90;1.95;;;19.70;45.80;;;;;;5019683;28;20040;-64
2023/02/10 04:36:56;;;;;;;2.70;2.00;;;19.70;45.80;;;;;;5019002;28;20037;-64
2023/02/10 04:39:22;;;;;;;3.03;2.15;;;19.70;45.80;;;;;;5021257;28;20058;-64
2023/02/10 04:41:48;;;;;;;2.65;1.95;;;19.70;45.80;;;;;;5021170;28;20120;-63
2023/02/10 04:44:13;;;;;;;2.80;1.90;;;19.70;45.90;;;;;;5024630;28;20070;-63
2023/02/10 04:46:39;;;;;;;2.83;2.10;;;19.70;45.90;;;;;;5020048;28;20124;-64
2023/02/10 04:49:04;;;;;;;2.53;1.85;;;19.70;45.90;;;;;;5019958;28;20382;-63
2023/02/10 04:51:30;;;;;;;2.92;2.08;;;19.70;45.90;;;;;;5026942;28;20036;-63
2023/02/10 04:53:56;;;;;;;3.03;1.90;;;19.60;46.00;;;;;;5018302;28;20026;-64
2023/02/10 04:56:21;;;;;;;2.40;1.80;;;19.60;46.00;;;;;;5020881;28;20034;-63
2023/02/10 04:58:47;;;;;;;2.70;1.77;;;19.60;46.20;;;;;;5021364;28;20021;-63
2023/02/10 05:01:12;;;;;;;2.60;1.90;;;19.60;46.20;;;;;;5021062;28;20396;-64
2023/02/10 05:03:38;;;;;;;2.42;1.80;;;19.60;46.30;;;;;;5019263;28;20026;-63
2023/02/10 05:06:13;;;;;;;2.78;2.00;;;19.50;46.30;;;;;;5020044;28;20127;-63
2023/02/10 05:08:42;;;;;;;2.75;1.92;;;19.60;46.40;;;;;;5020111;28;20145;-64
2023/02/10 05:11:09;;;;;;;3.13;2.23;;;19.50;46.40;;;;;;5020438;28;20053;-63
2023/02/10 05:13:35;;;;;;;2.28;1.80;;;19.60;46.40;;;;;;5020195;28;20040;-64
2023/02/10 05:16:02;;;;;;;2.65;1.80;;;19.50;46.30;;;;;;5020883;28;20033;-63
2023/02/10 05:18:29;;;;;;;2.70;1.90;;;19.50;46.30;;;;;;5020432;28;20053;-63
2023/02/10 05:20:55;;;;;;;3.00;2.05;;;19.50;46.30;;;;;;5022422;28;20025;-63
2023/02/10 05:23:20;;;;;;;3.45;2.20;;;19.50;46.30;;;;;;5022689;28;20101;-64
2023/02/10 05:25:46;;;;;;;2.90;1.98;;;19.50;46.40;;;;;;5019688;28;20036;-63
2023/02/10 05:28:12;;;;;;;3.17;2.10;;;19.50;46.40;;;;;;5022471;28;20447;-63
2023/02/10 05:30:38;;;;;;;3.10;1.90;;;19.50;46.50;;;;;;5025684;28;20135;-63
2023/02/10 05:33:03;;;;;;;2.72;1.92;;;19.50;46.50;;;;;;5018668;28;20105;-64
2023/02/10 05:35:29;;;;;;;2.85;1.95;;;19.50;46.40;;;;;;5018713;28;20137;-64
2023/02/10 05:37:55;;;;;;;2.90;2.00;;;19.50;46.50;;;;;;5018066;28;20026;-64
2023/02/10 05:40:20;;;;;;;2.70;1.77;;;19.50;46.50;;;;;;5017109;28;20523;-64
2023/02/10 05:42:46;;;;;;;2.88;1.98;;;19.50;47.10;;;;;;5017935;28;20093;-64
2023/02/10 05:45:12;;;;;;;2.60;1.75;;;19.50;46.60;;;;;;5019719;28;20025;-64
2023/02/10 05:47:37;;;;;;;3.35;2.00;;;19.50;46.60;;;;;;5019425;28;20087;-63
2023/02/10 05:50:03;;;;;;;2.42;1.60;;;19.50;46.70;;;;;;5024090;28;20128;-64
2023/02/10 05:52:28;;;;;;;2.50;1.70;;;19.50;46.60;;;;;;5027083;28;20126;-63
2023/02/10 05:54:54;;;;;;;2.65;1.80;;;19.50;46.70;;;;;;5018956;28;20089;-63
2023/02/10 05:57:20;;;;;;;3.03;1.80;;;19.50;46.70;;;;;;5019512;28;20025;-64
2023/02/10 05:59:45;;;;;;;3.58;1.80;;;19.50;46.70;;;;;;5022954;28;20477;-63
2023/02/10 06:02:11;;;;;;;3.10;1.90;;;19.50;46.70;;;;;;5017682;28;20067;-63
2023/02/10 06:04:36;;;;;;;2.47;1.70;;;19.50;46.70;;;;;;5020347;28;20606;-64
2023/02/10 06:07:02;;;;;;;2.60;1.85;;;19.50;46.70;;;;;;5020987;28;20044;-64
2023/02/10 06:09:28;;;;;;;2.20;1.70;;;19.50;46.80;;;;;;5018729;28;20061;-63
2023/02/10 06:11:53;;;;;;;2.80;1.90;;;19.50;46.80;;;;;;5020113;28;20037;-64
2023/02/10 06:14:20;;;;;;;2.88;1.90;;;19.50;46.80;;;;;;5016216;28;20025;-63
2023/02/10 06:16:46;;;;;;;3.00;1.90;;;19.50;46.80;;;;;;5019339;28;20422;-63
2023/02/10 06:19:12;;;;;;;2.83;1.90;;;19.50;46.80;;;;;;5018393;28;20021;-64
2023/02/10 06:21:37;;;;;;;3.17;1.90;;;19.50;46.90;;;;;;5015187;28;20022;-64
2023/02/10 06:24:03;;;;;;;3.05;1.90;;;19.40;46.80;;;;;;5016225;28;20036;-65
2023/02/10 06:26:29;;;;;;;3.20;1.92;;;19.40;46.90;;;;;;5019926;28;20101;-64
2023/02/10 06:28:56;;;;;;;2.63;1.90;;;19.40;46.80;;;;;;5020724;28;20025;-64
2023/02/10 06:31:22;;;;;;;2.75;1.90;;;19.40;46.80;;;;;;5017836;28;20040;-64
2023/02/10 06:33:47;;;;;;;3.30;2.05;;;19.40;46.90;;;;;;5016278;28;20029;-65
2023/02/10 06:36:13;;;;;;;3.40;2.10;;;19.40;46.90;;;;;;5016545;28;20036;-66
2023/02/10 06:38:39;;;;;;;3.22;1.75;;;19.40;47.60;;;;;;5016634;28;20107;-64
2023/02/10 06:41:05;;;;;;;3.15;1.77;;;19.50;48.10;;;;;;5017115;28;20473;-65
2023/02/10 06:43:31;;;;;;;2.55;1.75;;;19.50;48.00;;;;;;5018797;28;20032;-66
2023/02/10 06:45:57;;;;;;;2.75;1.80;;;19.50;48.10;;;;;;5017741;28;20112;-66
2023/02/10 06:48:23;;;;;;;2.88;1.77;;;19.50;48.10;;;;;;5017689;28;20635;-64
2023/02/10 06:50:48;;;;;;;2.45;1.58;;;19.50;48.10;;;;;;5019092;28;20034;-64
2023/02/10 06:53:14;;;;;;;2.97;1.60;;;19.50;47.90;;;;;;5016561;28;20045;-65
2023/02/10 06:55:40;;;;;;;2.40;1.63;;;19.60;47.90;;;;;;5019695;28;20033;-65
2023/02/10 06:58:05;;;;;;;2.78;1.80;;;19.60;47.90;;;;;;5021920;28;20022;-65
2023/02/10 07:00:34;;;;;;;2.70;1.80;;;19.60;47.80;;;;;;5017928;28;20509;-64
2023/02/10 07:02:59;;;;;;;2.45;1.75;;;19.60;47.80;;;;;;5013410;28;20030;-65
2023/02/10 07:05:25;;;;;;;3.08;1.83;;;19.70;47.80;;;;;;5014661;28;20034;-64
2023/02/10 07:07:53;;;;;;;6.10;2.05;;;19.70;48.20;;;;;;5015937;28;20017;-64
2023/02/10 07:10:19;;;;;;;3.08;2.00;;;19.80;48.00;;;;;;5018888;28;20411;-64
2023/02/10 07:12:46;;;;;;;3.85;2.13;;;19.70;47.80;;;;;;5017158;28;20041;-64
2023/02/10 07:15:13;;;;;;;2.85;2.00;;;19.80;47.80;;;;;;5017586;28;20084;-64
2023/02/10 07:17:39;;;;;;;3.17;2.00;;;19.80;47.60;;;;;;5018603;28;20109;-64
2023/02/10 07:20:05;;;;;;;3.78;2.15;;;19.90;47.60;;;;;;5015031;28;20536;-64
2023/02/10 07:22:31;;;;;;;4.60;2.00;;;19.90;47.60;;;;;;5018390;28;20477;-65
2023/02/10 07:24:56;;;;;;;3.88;2.00;;;19.90;47.60;;;;;;5015775;28;20025;-65
2023/02/10 07:27:22;;;;;;;3.67;2.20;;;19.90;47.60;;;;;;5017938;28;20034;-65
2023/02/10 07:29:48;;;;;;;3.00;2.00;;;19.90;47.50;;;;;;5018766;28;20115;-65
2023/02/10 07:32:14;;;;;;;4.93;2.10;;;19.90;47.30;;;;;;5020601;28;20151;-64
2023/02/10 07:34:40;;;;;;;3.20;1.95;;;20.00;47.50;;;;;;5022462;28;20029;-65
2023/02/10 07:37:06;;;;;;;3.20;2.03;;;20.00;47.50;;;;;;5018580;28;20022;-64
2023/02/10 07:39:32;;;;;;;2.97;1.75;;;20.00;47.50;;;;;;5025176;28;20021;-65
2023/02/10 07:41:57;;;;;;;2.63;1.67;;;20.00;47.30;;;;;;5022743;28;20465;-65
2023/02/10 07:44:23;;;;;;;2.60;1.70;;;20.00;47.30;;;;;;5022688;28;20040;-64
2023/02/10 07:46:51;;;;;;;4.05;2.05;;;20.00;47.60;;;;;;5019483;28;20620;-65
2023/02/10 07:49:17;;;;;;;4.25;1.90;;;20.00;47.80;;;;;;5023263;28;20033;-65
2023/02/10 07:51:42;;;;;;;2.75;1.85;;;20.10;47.20;;;;;;5019818;28;20049;-66
2023/02/10 07:54:09;;;;;;;3.10;2.20;;;20.10;47.30;;;;;;5022849;28;20040;-64
2023/02/10 07:56:34;;;;;;;3.20;1.88;;;20.10;47.20;;;;;;5021656;28;20042;-64
2023/02/10 07:59:00;;;;;;;2.80;1.88;;;20.10;47.00;;;;;;5024169;28;20489;-64
2023/02/10 08:01:26;;;;;;;2.95;1.95;;;20.20;47.00;;;;;;5024974;28;20047;-63
2023/02/10 08:03:51;;;;;;;3.20;2.00;;;20.20;46.80;;;;;;5022085;28;20130;-63
2023/02/10 08:06:25;;;;;;;3.47;2.10;;;20.20;46.80;;;;;;5021133;28;20409;-63
2023/02/10 08:08:51;;;;;;;3.75;2.60;;;20.30;46.80;;;;;;5020546;28;20474;-63
2023/02/10 08:11:17;;;;;;;4.20;2.90;;;20.30;46.60;;;;;;5019868;28;20033;-63
2023/02/10 08:13:43;;;;;;;4.53;2.53;;;20.40;46.30;;;;;;5020346;28;20029;-63
2023/02/10 08:16:11;;;;;;;5.00;2.30;;;20.50;46.20;;;;;;5020981;28;20048;-63
2023/02/10 08:18:40;;;;;;;3.10;2.40;;;20.60;46.20;;;;;;5018182;28;20030;-63
2023/02/10 08:21:06;;;;;;;;;;;20.70;46.10;;;;;;5019798;28;20024;-64
2023/02/10 08:23:32;;;;;;;3.65;2.70;;;20.70;46.00;;;;;;5018840;28;19905;-63
2023/02/10 08:25:58;;;;;;;3.65;2.53;;;20.80;45.80;;;;;;5021792;28;20033;-63
2023/02/10 08:28:24;;;;;;;2.65;2.13;;;20.90;45.60;;;;;;5018233;28;20029;-63
2023/02/10 08:30:49;;;;;;;3.08;2.15;;;21.00;45.60;;;;;;5017256;28;20092;-64
2023/02/10 08:33:15;;;;;;;3.35;2.40;;;21.10;45.50;;;;;;5021896;28;20160;-63
2023/02/10 08:35:41;;;;;;;3.95;2.67;;;21.10;45.30;;;;;;5023537;28;20029;-64
2023/02/10 08:38:10;;;;;;;3.75;2.85;;;21.20;45.30;;;;;;5019877;28;20029;-63
2023/02/10 08:40:36;;;;;;;;;;;21.30;45.20;;;;;;5024523;28;20029;-62
2023/02/10 08:43:02;;;;;;;3.38;2.38;;;21.40;45.10;;;;;;5023062;28;20325;-62
2023/02/10 08:45:28;;;;;;;3.60;2.30;;;21.50;44.90;;;;;;5019365;28;20073;-62
2023/02/10 08:47:53;;;;;;;3.28;2.40;;;21.50;44.80;;;;;;5021400;28;20037;-62
2023/02/10 08:50:19;;;;;;;3.55;2.35;;;21.60;44.50;;;;;;5019327;28;20022;-63
2023/02/10 08:52:45;;;;;;;3.53;2.47;;;21.70;44.50;;;;;;5021685;28;20029;-63
2023/02/10 08:55:11;;;;;;;3.38;2.30;;;21.80;44.40;;;;;;5021448;28;20078;-63
2023/02/10 08:57:38;;;;;;;4.18;3.10;;;21.90;44.30;;;;;;5021417;28;20034;-63
2023/02/10 09:00:06;;;;;;;3.42;2.33;;;22.00;44.60;;;;;;5020317;28;20511;-64
2023/02/10 09:02:31;;;;;;;3.70;2.60;;;22.10;44.00;;;;;;5021058;28;20060;-63
2023/02/10 09:04:57;;;;;;;4.22;2.53;;;22.20;43.60;;;;;;5019076;28;20484;-62
2023/02/10 09:07:23;;;;;;;3.85;2.65;;;22.20;43.60;;;;;;5019777;28;20489;-63
2023/02/10 09:09:48;;;;;;;3.88;2.63;;;22.20;43.40;;;;;;5020282;28;20030;-63
2023/02/10 09:12:14;;;;;;;3.63;2.35;;;22.20;43.20;;;;;;5020278;28;20451;-64
2023/02/10 09:14:40;;;;;;;3.33;2.50;;;22.20;43.20;;;;;;5015739;28;20030;-62
2023/02/10 09:17:08;;;;;;;3.97;2.83;;;22.20;43.10;;;;;;5017357;28;20029;-64
2023/02/10 09:19:35;;;;;;;3.80;2.53;;;22.20;43.10;;;;;;5018632;28;20026;-64
2023/02/10 09:22:02;;;;;;;4.28;2.40;;;22.20;43.00;;;;;;5018668;28;20060;-64
2023/02/10 09:24:28;;;;;;;3.50;2.50;;;22.20;43.10;;;;;;5017384;28;20025;-62
2023/02/10 09:26:54;;;;;;;3.28;2.25;;;22.20;43.20;;;;;;5018087;28;20039;-63
2023/02/10 09:29:19;;;;;;;3.90;2.63;;;22.20;43.50;;;;;;5021031;28;20038;-65
2023/02/10 09:31:45;;;;;;;2.92;2.28;;;22.20;43.20;;;;;;5020301;28;20032;-64
2023/02/10 09:34:10;;;;;;;4.32;2.40;;;22.20;43.10;;;;;;5020790;28;20385;-65
2023/02/10 09:36:36;;;;;;;4.47;2.40;;;22.20;43.00;;;;;;5021449;28;20405;-66
2023/02/10 09:39:02;;;;;;;5.03;2.50;;;22.20;42.90;;;;;;5020553;28;20025;-67
2023/02/10 09:41:36;;;;;;;3.67;2.70;;;22.10;42.80;;;;;;5021273;28;20022;-67
2023/02/10 09:44:19;;;;;;;3.90;2.80;;;22.10;42.90;;;;;;5019065;28;20030;-67
2023/02/10 09:46:51;;;;;;;4.82;2.83;;;22.10;42.90;;;;;;5019004;28;20042;-67
2023/02/10 09:49:43;;;;;;;3.60;2.53;;;22.10;43.00;;;;;;5017227;28;20088;-66
2023/02/10 09:52:09;;;;;;;3.90;2.90;;;22.10;42.80;;;;;;5021049;28;20498;-66
2023/02/10 09:54:35;;;;;;;3.92;2.92;;;22.10;42.90;;;;;;5018106;28;20029;-67
2023/02/10 09:57:08;;;;;;;4.60;3.20;;;22.10;42.80;;;;;;5018118;28;20030;-67
2023/02/10 09:59:36;;;;;;;4.28;3.08;;;22.00;42.80;;;;;;5015727;28;20024;-66
2023/02/10 10:02:17;;;;;;;4.03;2.85;;;22.10;42.90;;;;;;5018421;28;20970;-66
2023/02/10 10:04:44;;;;;;;4.55;3.22;;;22.00;43.20;;;;;;5021523;28;20116;-66
2023/02/10 10:07:31;;;;;;;5.38;3.03;;;22.10;43.00;;;;;;5023297;28;20035;-66
2023/02/10 10:10:09;;;;;;;3.75;3.20;;;22.00;43.10;;;;;;5018124;28;20481;-66
2023/02/10 10:12:35;;;;;;;4.47;3.13;;;22.00;43.10;;;;;;5021044;28;20088;-67
2023/02/10 10:15:01;;;;;;;4.85;3.20;;;21.90;43.00;;;;;;5019419;28;20120;-66
2023/02/10 10:17:42;;;;;;;5.90;3.08;;;21.90;43.00;;;;;;5018757;28;20036;-67
2023/02/10 10:20:17;;;;;;;4.07;2.95;;;21.90;43.00;;;;;;5018900;28;20393;-67
2023/02/10 10:22:54;;;;;;;4.38;3.20;;;22.00;43.10;;;;;;5016823;28;20184;-67
2023/02/10 10:25:58;;;;;;;4.13;3.05;;;21.90;43.10;;;;;;5019893;28;20032;-67
2023/02/10 10:28:58;;;;;;;4.28;3.17;;;21.90;43.10;;;;;;5018219;28;20481;-66
2023/02/10 10:31:35;;;;;;;4.75;3.20;;;21.90;43.20;;;;;;5015246;28;20528;-67
2023/02/10 10:34:07;;;;;;;3.92;3.00;;;21.90;43.20;;;;;;5020197;28;20488;-67
2023/02/10 10:36:39;;;;;;;5.85;3.25;;;21.80;43.20;;;;;;5019744;28;20028;-66
2023/02/10 10:39:28;;;;;;;4.53;2.88;;;21.80;43.30;;;;;;5017914;28;20059;-67
2023/02/10 10:41:57;;;;;;;4.22;3.13;;;21.80;43.50;;;;;;5017970;28;20381;-67
2023/02/10 10:44:24;;;;;;;4.23;3.30;;;21.80;43.50;;;;;;5034781;28;20026;-66
2023/02/10 10:46:58;;;;;;;4.10;2.80;;;21.80;43.50;;;;;;5020435;28;20036;-66
2023/02/10 10:49:24;;;;;;;4.60;3.20;;;21.80;43.50;;;;;;5019308;28;20075;-67
2023/02/10 10:51:50;;;;;;;3.67;2.83;;;21.80;43.50;;;;;;5016865;28;20154;-66
2023/02/10 10:54:18;;;;;;;4.82;3.20;;;21.80;43.50;;;;;;5021269;28;20041;-67
2023/02/10 10:57:01;;;;;;;4.40;3.00;;;21.80;44.10;;;;;;5018272;28;20029;-67
2023/02/10 10:59:42;;;;;;;6.22;3.00;;;21.70;43.60;;;;;;5018575;28;20095;-67
2023/02/10 11:02:34;;;;;;;4.00;3.08;;;21.80;43.60;;;;;;5019347;28;20022;-67
2023/02/10 11:05:05;;;;;;;4.10;2.92;;;21.80;43.60;;;;;;5014659;28;20037;-66
2023/02/10 11:07:33;;;;;;;4.85;2.92;;;21.80;43.60;;;;;;5020828;28;20025;-68
2023/02/10 11:10:00;;;;;;;4.55;2.95;;;21.70;43.60;;;;;;5022956;28;20072;-67
2023/02/10 11:12:37;;;;;;;5.35;3.03;;;21.70;43.70;;;;;;5023879;28;20084;-67
2023/02/10 11:15:25;;;;;;;4.70;3.10;;;21.70;43.70;;;;;;5023131;28;20517;-68
2023/02/10 11:17:53;;;;;;;4.38;3.08;;;21.70;43.70;;;;;;5022931;28;20393;-67
2023/02/10 11:20:29;;;;;;;4.15;3.20;;;21.70;43.80;;;;;;5022724;28;20159;-67
2023/02/10 11:23:11;;;;;;;4.60;2.72;;;21.70;43.80;;;;;;5021275;28;20081;-67
2023/02/10 11:25:36;;;;;;;4.05;2.85;;;21.70;43.80;;;;;;5021662;28;20025;-68
2023/02/10 11:28:05;;;;;;;6.43;3.42;;;21.70;44.00;;;;;;5019331;28;20084;-67
2023/02/10 11:30:34;;;;;;;4.80;3.20;;;21.70;44.00;;;;;;5021321;28;20496;-67
2023/02/10 11:33:01;;;;;;;;;;;21.70;44.10;;;;;;5021656;28;20021;-67
2023/02/10 11:35:28;;;;;;;5.90;3.30;;;21.70;44.10;;;;;;5021004;28;19959;-67
2023/02/10 11:37:57;;;;;;;4.60;3.00;;;21.70;44.60;;;;;;5019040;28;20026;-67
2023/02/10 11:40:48;;;;;;;5.57;3.45;;;21.70;44.10;;;;;;5020869;28;20424;-68
2023/02/10 11:43:15;;;;;;;5.30;3.42;;;21.70;44.10;;;;;;5021176;28;20552;-66
2023/02/10 11:45:52;;;;;;;4.63;3.10;;;21.70;44.10;;;;;;5028913;28;20124;-66
2023/02/10 11:48:20;;;;;;;4.45;3.38;;;21.70;44.20;;;;;;5021813;28;20034;-67
2023/02/10 11:50:47;;;;;;;5.95;3.50;;;21.70;44.30;;;;;;5018316;28;20506;-67
2023/02/10 11:53:25;;;;;;;4.30;3.22;;;21.70;44.40;;;;;;5021566;28;20025;-66
2023/02/10 11:56:01;;;;;;;6.20;3.88;;;21.70;44.40;;;;;;5021346;28;20028;-67
2023/02/10 12:02:04;;;;;;;6.90;3.22;;;21.70;44.30;;;;;;5021193;28;20049;-67
2023/02/10 12:04:41;;;;;;;5.90;3.38;;;21.70;44.40;;;;;;5021027;28;20045;-66
2023/02/10 12:07:33;;;;;;;5.22;3.28;;;21.70;44.40;;;;;;5019341;28;20038;-67
2023/02/10 12:10:08;;;;;;;5.22;3.63;;;21.70;44.50;;;;;;5014346;28;20046;-67
2023/02/10 12:12:42;;;;;;;5.07;3.45;;;21.70;44.50;;;;;;5022734;28;20527;-67
2023/02/10 12:15:46;;;;;;;5.13;3.35;;;21.60;44.40;;;;;;5020158;28;20076;-67
2023/02/10 12:18:23;;;;;;;5.35;3.58;;;21.70;44.40;;;;;;4998052;28;20030;-66
2023/02/10 12:21:34;;;;;;;4.72;3.10;;;21.70;44.50;;;;;;5019954;28;20040;-66
2023/02/10 12:24:30;;;;;;;5.75;3.25;;;21.70;44.50;;;;;;5012612;28;20212;-66
2023/02/10 12:27:04;;;;;;;5.28;3.80;;;21.70;44.50;;;;;;5020723;28;20025;-66
2023/02/10 12:29:39;;;;;;;6.22;3.60;;;21.70;44.50;;;;;;5021515;28;20037;-66
2023/02/10 12:32:33;;;;;;;6.15;3.67;;;21.70;44.50;;;;;;5019588;28;20131;-65
2023/02/10 12:35:26;;;;;;;5.20;3.30;;;21.70;44.50;;;;;;5020334;28;20446;-66
2023/02/10 12:37:59;;;;;;;5.28;3.70;;;21.70;44.50;;;;;;5020729;28;20033;-67
2023/02/10 12:40:52;;;;;;;5.50;3.70;;;21.70;44.50;;;;;;5022234;28;20029;-67
2023/02/10 12:43:24;;;;;;;5.22;3.20;;;21.70;44.50;;;;;;5022742;28;20079;-67
2023/02/10 12:46:26;;;;;;;5.50;3.42;;;21.70;44.60;;;;;;5020762;28;20033;-66
2023/02/10 12:49:23;;;;;;;4.60;3.30;;;21.70;44.60;;;;;;5022951;28;20485;-66
2023/02/10 12:51:58;;;;;;;5.97;3.42;;;21.70;44.60;;;;;;5020615;28;20104;-67
2023/02/10 12:54:48;;;;;;;4.82;3.28;;;21.70;44.70;;;;;;5023528;28;20018;-66
2023/02/10 12:57:26;;;;;;;5.95;3.70;;;21.70;44.70;;;;;;5021992;28;20045;-66
2023/02/10 13:00:14;;;;;;;6.03;4.00;;;21.60;44.60;;;;;;5019517;28;20437;-67
2023/02/10 13:02:45;;;;;;;4.88;3.35;;;21.60;44.60;;;;;;5020665;28;20075;-67
2023/02/10 13:05:17;;;;;;;4.95;3.53;;;21.60;44.70;;;;;;5018801;28;20421;-66
2023/02/10 13:07:57;;;;;;;7.47;3.72;;;21.60;44.70;;;;;;5019971;28;20030;-67